Newport Municipal Airport Newport US
ICAO: KONP
IATA: ONP
Category: Medium
Scheduled Services: No

Elevation: 160 ft
TransAlt. 18000 ft.

Airport Communications:
AWOS 3:133.9
SEATTLE CNTR:125.8
CTAF/UNICOM:122.8

KONP Zoom In..

If you have problems with the map follow the link
https://www.worldairports.se/pages/airport.php?
ICAO=KONP

Runways:

(A) RW 02 length 3001 ft width 75 ft
---- / hdg 18

(B) RW 16 length 5398 ft width 150 ft
ILS 111.50 / hdg 158

(C) RW 20 length 3001 ft width 75 ft
---- / hdg 198

(D) RW 34 length 5398 ft width 150 ft
---- / hdg 338

Location; KONP
Day. 21 / Time. 05.35 Zulu
* Altimeter: 30.01
* Temperature: 06° c. 42.8°f.
* Wind from: 000° Speed 00 kn.
Dewpoint: 06° c.
Visibility: 5 Statute Miles.
Clouds: Clear (automated report).
Conditions: Mist.

KONP 210535Z AUTO 00000KT 5SM BR CLR 06/06 A3001 RMK AO2


Wind - Calm.

 
 
jpsmedia.com for Web Design worldairports.se 2018   terms of use